Time;durP1;ratioP1;P1;durP2;ratioP2;P2;SDS_P1;SDS_P2;PMS_P1;PMS_P2;Temp;Humidity;BMP_temperature;BMP_pressure;BME280_temperature;BME280_humidity;BME280_pressure;Samples;Min_cycle;Max_cycle;Signal;HPM_P1;HPM_P2
2023/11/05 00:01:41;;;;;;;10.00;2.10;;;;;;;20.92;79.05;98712.42;109944;1287;21845;-64
2023/11/05 00:04:08;;;;;;;11.50;2.70;;;;;;;20.89;78.70;98726.77;109937;1287;21948;-67
2023/11/05 00:06:34;;;;;;;9.80;3.00;;;;;;;20.89;78.65;98739.61;109939;1286;21940;-63
2023/11/05 00:08:59;;;;;;;8.80;2.40;;;;;;;20.88;79.20;98748.23;109958;1276;21864;-63
2023/11/05 00:11:25;;;;;;;7.20;2.00;;;;;;;20.89;79.30;98760.52;109941;1287;21879;-65
2023/11/05 00:13:51;;;;;;;9.20;2.40;;;;;;;20.88;79.54;98764.33;109948;1285;21940;-65
2023/11/05 00:16:16;;;;;;;7.30;2.60;;;;;;;20.82;79.77;98764.46;109947;1287;22025;-65
2023/11/05 00:18:42;;;;;;;8.40;2.80;;;;;;;20.82;78.76;98762.33;109924;1287;21949;-64
2023/11/05 00:21:07;;;;;;;11.30;2.90;;;;;;;20.82;78.68;98771.36;109932;1287;21935;-65
2023/11/05 00:23:33;;;;;;;10.80;2.90;;;;;;;20.82;78.92;98771.40;109931;1284;21956;-65
2023/11/05 00:25:59;;;;;;;8.50;2.90;;;;;;;20.80;78.90;98774.20;109947;1287;22067;-65
2023/11/05 00:28:24;;;;;;;9.30;2.70;;;;;;;20.79;78.71;98780.70;109932;1282;22016;-64
2023/11/05 00:30:50;;;;;;;8.10;3.00;;;;;;;20.78;78.64;98786.28;109962;1287;21926;-65
2023/11/05 00:33:15;;;;;;;7.60;3.60;;;;;;;20.76;78.53;98786.98;109957;1281;21959;-64
2023/11/05 00:35:44;;;;;;;8.50;3.50;;;;;;;20.75;78.48;98786.87;109934;1287;21909;-66
2023/11/05 00:38:11;;;;;;;6.50;3.50;;;;;;;20.74;78.29;98792.02;109937;1287;22335;-64
2023/11/05 00:40:36;;;;;;;6.70;3.60;;;;;;;20.73;78.13;98792.79;109950;1287;21903;-64
2023/11/05 00:43:04;;;;;;;9.00;3.80;;;;;;;20.71;78.15;98796.46;109946;1287;21896;-65
2023/11/05 00:45:30;;;;;;;6.70;4.00;;;;;;;20.70;78.05;98802.06;109936;1286;21953;-63
2023/11/05 00:47:55;;;;;;;7.70;3.90;;;;;;;20.68;78.12;98803.11;109952;1287;21913;-65
2023/11/05 00:50:21;;;;;;;6.60;3.70;;;;;;;20.68;77.81;98808.11;109940;1287;21948;-65
2023/11/05 00:52:47;;;;;;;7.10;4.10;;;;;;;20.65;78.40;98808.89;109962;1277;21928;-64
2023/11/05 00:55:14;;;;;;;7.30;3.80;;;;;;;20.66;77.99;98800.98;109927;1286;21945;-64
2023/11/05 00:57:40;;;;;;;8.90;4.50;;;;;;;20.65;78.04;98797.48;109966;1277;21854;-64
2023/11/05 01:00:12;;;;;;;7.80;4.30;;;;;;;20.68;77.42;98793.73;109939;1287;21944;-64
2023/11/05 01:02:38;;;;;;;7.30;4.40;;;;;;;20.67;77.68;98795.53;109946;1287;21908;-64
2023/11/05 01:05:05;;;;;;;6.90;4.10;;;;;;;20.68;77.50;98802.60;109923;1286;21940;-65
2023/11/05 01:07:31;;;;;;;6.60;4.70;;;;;;;20.68;77.47;98807.24;109937;1280;21963;-64
2023/11/05 01:09:56;;;;;;;9.10;4.60;;;;;;;20.67;77.43;98807.67;109948;1286;21951;-64
2023/11/05 01:12:22;;;;;;;8.10;5.20;;;;;;;20.65;77.65;98817.06;109930;1287;21943;-64
2023/11/05 01:14:48;;;;;;;9.30;5.40;;;;;;;20.64;77.37;98814.42;109915;1287;21942;-64
2023/11/05 01:17:14;;;;;;;10.60;6.60;;;;;;;20.64;77.30;98808.05;109934;1286;21870;-64
2023/11/05 01:19:40;;;;;;;8.40;5.90;;;;;;;20.63;77.15;98812.73;109949;1280;21943;-64
2023/11/05 01:22:06;;;;;;;9.00;6.20;;;;;;;20.63;77.08;98810.98;109961;1287;21867;-64
2023/11/05 01:24:32;;;;;;;10.50;5.90;;;;;;;20.63;77.07;98808.67;109945;1287;21944;-64
2023/11/05 01:26:57;;;;;;;8.00;6.20;;;;;;;20.61;76.79;98805.60;109952;1280;21931;-65
2023/11/05 01:29:23;;;;;;;8.00;6.00;;;;;;;20.61;76.74;98800.13;109940;1286;21946;-63
2023/11/05 01:31:49;;;;;;;9.20;6.50;;;;;;;20.60;76.60;98799.31;109928;1286;21944;-64
2023/11/05 01:34:15;;;;;;;10.50;6.40;;;;;;;20.61;76.51;98801.35;109955;1280;21939;-64
2023/11/05 01:36:41;;;;;;;9.70;6.90;;;;;;;20.58;76.86;98803.02;109948;1276;22417;-64
2023/11/05 01:39:06;;;;;;;9.80;7.00;;;;;;;20.54;77.30;98809.23;109933;1276;21922;-64
2023/11/05 01:41:33;;;;;;;10.60;6.50;;;;;;;20.50;77.01;98811.48;109927;1273;21852;-66
2023/11/05 01:43:58;;;;;;;10.50;6.40;;;;;;;20.44;77.32;98816.94;109947;1287;22012;-64
2023/11/05 01:46:25;;;;;;;8.70;6.40;;;;;;;20.37;77.80;98819.57;109953;1281;22005;-66
2023/11/05 01:48:50;;;;;;;8.80;6.90;;;;;;;20.35;78.10;98833.85;109954;1287;21939;-64
2023/11/05 01:51:16;;;;;;;8.50;5.40;;;;;;;20.31;78.37;98848.35;109938;1283;22001;-63
2023/11/05 01:53:43;;;;;;;3.80;1.70;;;;;;;20.26;76.32;98853.59;109862;1287;21953;-63
2023/11/05 01:56:09;;;;;;;3.00;0.90;;;;;;;20.15;74.01;98847.44;109931;1287;21878;-63
2023/11/05 01:58:34;;;;;;;1.20;0.80;;;;;;;20.06;73.40;98846.70;109933;1283;21934;-64
2023/11/05 02:01:00;;;;;;;1.20;0.60;;;;;;;19.93;72.35;98848.94;109850;1283;21919;-62
2023/11/05 02:03:25;;;;;;;1.00;0.50;;;;;;;19.79;71.77;98857.07;109928;1287;21997;-62
2023/11/05 02:05:51;;;;;;;2.30;0.50;;;;;;;19.69;71.92;98869.23;109922;1280;21964;-62
2023/11/05 02:08:17;;;;;;;1.80;0.70;;;;;;;19.58;72.07;98882.27;109861;1287;21968;-62
2023/11/05 02:10:42;;;;;;;2.20;0.40;;;;;;;19.50;72.41;98890.34;109922;1286;21942;-65
2023/11/05 02:13:08;;;;;;;2.00;0.70;;;;;;;19.45;72.53;98892.46;109954;1287;21953;-63
2023/11/05 02:15:34;;;;;;;1.50;0.40;;;;;;;19.42;72.65;98899.63;109941;1287;21955;-63
2023/11/05 02:17:59;;;;;;;1.90;0.30;;;;;;;19.36;72.93;98901.64;109938;1280;22002;-63
2023/11/05 02:20:25;;;;;;;1.30;0.30;;;;;;;19.31;72.89;98908.63;109938;1274;21915;-63
2023/11/05 02:22:52;;;;;;;1.70;0.30;;;;;;;19.28;72.82;98914.65;109856;1287;21994;-64
2023/11/05 02:25:20;;;;;;;2.70;0.90;;;;;;;19.24;72.79;98923.83;109942;1283;21917;-63
2023/11/05 02:27:50;;;;;;;0.70;0.30;;;;;;;19.20;72.77;98932.83;109943;1283;22005;-63
2023/11/05 02:30:19;;;;;;;1.20;0.40;;;;;;;19.23;72.51;98938.84;109959;1280;21855;-65
2023/11/05 02:32:46;;;;;;;1.60;0.80;;;;;;;19.26;72.30;98949.30;109944;1287;21952;-65
2023/11/05 02:35:12;;;;;;;1.80;0.60;;;;;;;19.26;72.21;98957.52;109946;1287;21939;-65
2023/11/05 02:37:38;;;;;;;1.70;1.00;;;;;;;19.27;72.35;98967.94;109955;1279;21874;-63
2023/11/05 02:40:08;;;;;;;0.70;0.40;;;;;;;19.26;72.07;98975.98;109939;1276;21861;-66
2023/11/05 02:42:34;;;;;;;2.30;0.40;;;;;;;19.25;71.91;98989.05;109934;1287;21880;-65
2023/11/05 02:44:59;;;;;;;2.60;0.40;;;;;;;19.20;71.48;98991.90;109940;1273;21916;-66
2023/11/05 02:47:25;;;;;;;0.90;0.30;;;;;;;19.14;71.17;98994.98;109943;1283;21961;-62
2023/11/05 02:49:50;;;;;;;0.60;0.30;;;;;;;19.07;71.17;99005.39;109937;1277;21935;-63
2023/11/05 02:52:16;;;;;;;1.40;0.30;;;;;;;18.96;71.15;99010.41;109941;1283;22012;-66
2023/11/05 02:54:42;;;;;;;0.90;0.30;;;;;;;18.89;71.23;99015.00;109930;1280;22025;-63
2023/11/05 02:57:08;;;;;;;1.10;0.40;;;;;;;18.85;71.36;99023.41;109934;1287;22002;-63
2023/11/05 02:59:33;;;;;;;1.80;0.30;;;;;;;18.82;71.32;99025.93;109945;1287;21965;-62
2023/11/05 03:01:59;;;;;;;1.40;0.40;;;;;;;18.78;71.19;99029.73;109936;1278;21922;-63
2023/11/05 03:04:25;;;;;;;3.30;0.50;;;;;;;18.73;71.08;99047.83;109939;1287;21982;-66
2023/11/05 03:06:51;;;;;;;2.40;0.40;;;;;;;18.66;70.98;99061.24;109934;1287;21930;-67
2023/11/05 03:09:17;;;;;;;1.50;0.30;;;;;;;18.62;71.11;99068.10;109931;1287;21978;-63
2023/11/05 03:11:45;;;;;;;2.10;0.50;;;;;;;18.58;71.10;99071.91;109952;1287;21898;-63
2023/11/05 03:14:11;;;;;;;0.90;0.60;;;;;;;18.54;71.16;99081.98;109929;1287;21931;-65
2023/11/05 03:16:40;;;;;;;4.40;0.60;;;;;;;18.48;71.14;99085.39;109923;1280;21983;-63
2023/11/05 03:19:06;;;;;;;2.20;0.60;;;;;;;18.42;71.17;99090.71;109944;1283;21924;-63
2023/11/05 03:21:31;;;;;;;1.80;0.70;;;;;;;18.37;71.13;99091.95;109951;1283;21878;-63
2023/11/05 03:23:57;;;;;;;1.80;0.80;;;;;;;18.30;70.96;99092.91;109922;1287;21935;-63
2023/11/05 03:26:24;;;;;;;3.00;0.80;;;;;;;18.24;70.88;99091.02;109948;1286;21940;-66
2023/11/05 03:28:50;;;;;;;1.80;0.50;;;;;;;18.18;70.83;99094.80;109935;1286;21994;-65
2023/11/05 03:31:16;;;;;;;3.30;0.70;;;;;;;18.11;70.80;99103.55;109929;1277;21946;-65
2023/11/05 03:33:42;;;;;;;1.00;0.50;;;;;;;18.05;70.71;99108.56;109916;1286;22125;-64
2023/11/05 03:36:08;;;;;;;0.60;0.40;;;;;;;17.98;70.71;99115.89;109945;1287;21957;-65
2023/11/05 03:38:34;;;;;;;2.30;0.60;;;;;;;17.89;70.88;99118.52;109931;1280;21942;-65
2023/11/05 03:41:00;;;;;;;2.00;0.70;;;;;;;17.84;70.96;99116.41;109946;1287;22033;-65
2023/11/05 03:43:26;;;;;;;2.50;0.70;;;;;;;17.81;71.12;99116.38;109940;1284;21953;-65
2023/11/05 03:45:52;;;;;;;1.90;0.70;;;;;;;17.79;71.08;99127.15;109923;1287;21936;-64
2023/11/05 03:48:19;;;;;;;1.20;0.40;;;;;;;17.76;71.23;99133.39;109937;1283;21995;-64
2023/11/05 03:50:44;;;;;;;1.90;0.60;;;;;;;17.74;71.10;99133.52;109948;1287;22004;-64
2023/11/05 03:53:10;;;;;;;1.70;0.50;;;;;;;17.75;71.32;99136.46;109930;1287;22065;-64
2023/11/05 03:55:36;;;;;;;2.30;0.60;;;;;;;17.77;71.30;99139.17;109928;1287;21886;-64
2023/11/05 03:58:01;;;;;;;1.70;0.70;;;;;;;17.77;71.18;99141.34;109949;1280;21954;-64
2023/11/05 04:00:27;;;;;;;1.60;0.70;;;;;;;17.78;71.32;99138.08;109925;1280;22001;-64
2023/11/05 04:02:52;;;;;;;1.90;0.80;;;;;;;17.79;71.33;99140.50;109944;1273;21952;-65
2023/11/05 04:05:18;;;;;;;4.70;1.40;;;;;;;17.82;71.39;99142.79;109942;1278;21969;-67
2023/11/05 04:07:43;;;;;;;2.50;1.10;;;;;;;17.83;71.31;99149.62;109931;1287;21958;-66
2023/11/05 04:10:10;;;;;;;2.00;1.10;;;;;;;17.84;71.20;99152.08;109941;1287;22003;-64
2023/11/05 04:12:36;;;;;;;3.60;1.30;;;;;;;17.82;71.08;99154.48;109937;1282;22002;-64
2023/11/05 04:15:06;;;;;;;3.60;1.00;;;;;;;17.81;71.29;99156.30;109949;1283;21871;-65
2023/11/05 04:17:33;;;;;;;2.70;1.20;;;;;;;17.80;71.60;99159.05;109896;1287;22376;-65
2023/11/05 04:19:59;;;;;;;1.90;0.80;;;;;;;17.80;71.65;99162.41;109943;1283;21924;-65
2023/11/05 04:22:25;;;;;;;2.80;0.90;;;;;;;17.81;71.75;99163.05;109944;1287;21927;-65
2023/11/05 04:24:52;;;;;;;2.60;1.20;;;;;;;17.82;71.68;99166.70;109946;1276;21996;-64
2023/11/05 04:27:18;;;;;;;2.30;1.20;;;;;;;17.82;71.65;99171.67;109936;1287;21843;-65
2023/11/05 04:29:44;;;;;;;2.60;1.30;;;;;;;17.80;71.49;99178.54;109936;1287;22018;-65
2023/11/05 04:32:10;;;;;;;3.80;0.90;;;;;;;17.78;71.39;99178.84;109955;1286;21937;-66
2023/11/05 04:34:36;;;;;;;3.30;0.80;;;;;;;17.77;71.47;99181.77;109956;1286;21954;-64
2023/11/05 04:37:02;;;;;;;2.00;0.80;;;;;;;17.77;71.66;99178.05;109944;1276;21945;-65
2023/11/05 04:39:28;;;;;;;6.20;0.90;;;;;;;17.77;71.58;99178.74;109950;1287;21959;-64
2023/11/05 04:41:53;;;;;;;2.90;1.00;;;;;;;17.75;71.56;99178.88;109931;1286;21902;-65
2023/11/05 04:44:19;;;;;;;1.60;0.70;;;;;;;17.75;71.67;99181.88;109922;1279;21961;-64
2023/11/05 04:46:45;;;;;;;2.40;0.70;;;;;;;17.74;71.61;99184.23;109932;1287;21903;-64
2023/11/05 04:49:10;;;;;;;3.20;1.20;;;;;;;17.70;71.22;99192.08;109938;1286;21933;-64
2023/11/05 04:51:36;;;;;;;2.90;0.80;;;;;;;17.64;71.00;99196.92;109927;1277;21907;-64
2023/11/05 04:54:02;;;;;;;3.00;0.70;;;;;;;17.57;70.96;99203.70;109945;1280;21995;-64
2023/11/05 04:56:28;;;;;;;1.60;0.80;;;;;;;17.52;71.17;99209.64;109957;1279;21913;-65
2023/11/05 04:58:53;;;;;;;2.80;1.10;;;;;;;17.48;71.05;99215.42;109928;1283;22437;-64
2023/11/05 05:01:19;;;;;;;2.90;0.90;;;;;;;17.46;71.31;99212.70;109936;1287;21928;-64
2023/11/05 05:03:44;;;;;;;6.70;0.80;;;;;;;17.45;71.35;99213.09;109951;1277;21938;-65
2023/11/05 05:06:10;;;;;;;2.40;1.00;;;;;;;17.44;71.64;99214.22;109851;1282;21903;-63
2023/11/05 05:08:36;;;;;;;4.40;1.30;;;;;;;17.45;72.00;99212.79;109934;1273;21940;-63
2023/11/05 05:11:01;;;;;;;2.50;1.10;;;;;;;17.45;71.94;99221.80;109938;1286;21912;-64
2023/11/05 05:13:28;;;;;;;3.30;1.10;;;;;;;17.45;72.02;99230.34;109934;1280;21993;-65
2023/11/05 05:15:54;;;;;;;2.70;1.00;;;;;;;17.45;72.14;99239.92;109953;1287;21910;-64
2023/11/05 05:18:20;;;;;;;2.20;0.80;;;;;;;17.47;72.38;99244.41;109933;1286;21946;-63
2023/11/05 05:20:45;;;;;;;2.40;0.90;;;;;;;17.51;72.62;99243.58;109923;1280;21875;-64
2023/11/05 05:23:11;;;;;;;2.00;0.90;;;;;;;17.57;73.05;99237.94;109948;1276;21938;-64
2023/11/05 05:25:36;;;;;;;1.80;0.90;;;;;;;17.64;73.36;99237.73;109953;1276;22024;-64
2023/11/05 05:28:02;;;;;;;2.00;0.80;;;;;;;17.69;73.60;99235.77;109939;1287;21942;-64
2023/11/05 05:30:28;;;;;;;1.50;0.60;;;;;;;17.74;73.31;99232.54;109934;1273;21930;-64
2023/11/05 05:32:54;;;;;;;3.40;1.00;;;;;;;17.75;73.29;99236.36;109938;1287;21968;-64
2023/11/05 05:35:19;;;;;;;2.20;1.00;;;;;;;17.74;73.23;99233.23;109946;1279;21928;-64
2023/11/05 05:37:45;;;;;;;1.60;0.90;;;;;;;17.71;73.04;99237.27;109931;1286;21943;-65
2023/11/05 05:40:11;;;;;;;1.30;0.70;;;;;;;17.67;72.63;99240.73;109934;1278;21930;-64
2023/11/05 05:42:37;;;;;;;1.90;1.00;;;;;;;17.63;73.01;99246.13;109959;1286;21960;-64
2023/11/05 05:45:03;;;;;;;2.10;0.90;;;;;;;17.61;73.13;99249.92;109913;1287;21929;-65
2023/11/05 05:47:29;;;;;;;3.00;1.00;;;;;;;17.60;73.32;99250.34;109908;1278;21886;-64
2023/11/05 05:49:55;;;;;;;1.90;1.00;;;;;;;17.60;73.19;99253.94;109947;1287;21910;-64
2023/11/05 05:52:21;;;;;;;2.00;1.10;;;;;;;17.57;73.31;99257.80;109938;1283;21949;-63
2023/11/05 05:54:46;;;;;;;2.10;1.20;;;;;;;17.55;73.56;99264.13;109930;1280;21860;-63
2023/11/05 05:57:12;;;;;;;2.40;1.20;;;;;;;17.53;73.89;99266.52;109924;1287;21928;-65
2023/11/05 05:59:38;;;;;;;1.80;1.10;;;;;;;17.56;74.51;99276.65;109933;1279;21945;-64
2023/11/05 06:02:07;;;;;;;1.80;1.00;;;;;;;17.59;75.06;99284.29;109926;1286;21975;-63
2023/11/05 06:04:37;;;;;;;2.90;1.10;;;;;;;17.61;75.00;99281.71;109939;1286;22402;-65
2023/11/05 06:07:02;;;;;;;1.60;1.10;;;;;;;17.65;75.38;99286.08;109947;1287;21993;-63
2023/11/05 06:09:29;;;;;;;1.90;1.00;;;;;;;17.72;75.52;99290.65;109945;1287;21960;-63
2023/11/05 06:11:55;;;;;;;2.50;1.50;;;;;;;17.77;75.77;99289.77;109939;1287;21963;-63
2023/11/05 06:14:21;;;;;;;2.70;1.50;;;;;;;17.83;75.75;99291.57;109934;1286;21957;-63
2023/11/05 06:16:46;;;;;;;2.70;1.60;;;;;;;17.89;75.80;99290.35;109929;1286;21948;-64
2023/11/05 06:19:12;;;;;;;2.30;1.50;;;;;;;17.93;76.04;99289.55;109826;1284;21959;-65
2023/11/05 06:21:37;;;;;;;3.10;1.90;;;;;;;17.96;76.02;99291.34;109927;1287;22018;-65
2023/11/05 06:24:03;;;;;;;3.00;1.80;;;;;;;17.99;75.62;99293.29;109954;1287;21964;-63
2023/11/05 06:26:29;;;;;;;3.00;2.00;;;;;;;18.06;75.95;99294.34;109959;1286;22000;-64
2023/11/05 06:28:55;;;;;;;3.60;2.20;;;;;;;18.15;76.61;99298.56;109952;1286;22315;-63
2023/11/05 06:31:20;;;;;;;3.90;1.90;;;;;;;18.27;76.74;99306.70;109930;1280;21864;-66
2023/11/05 06:33:46;;;;;;;4.30;2.60;;;;;;;18.41;77.03;99311.73;109926;1285;21992;-62
2023/11/05 06:36:12;;;;;;;3.00;1.80;;;;;;;18.56;77.33;99317.55;109944;1287;21893;-62
2023/11/05 06:38:37;;;;;;;4.30;2.60;;;;;;;18.68;77.21;99313.08;109920;1287;22013;-65
2023/11/05 06:41:03;;;;;;;4.60;2.20;;;;;;;18.78;77.28;99310.52;109949;1286;21914;-61
2023/11/05 06:43:29;;;;;;;6.30;2.70;;;;;;;18.84;78.20;99306.89;109949;1287;21961;-62
2023/11/05 06:45:54;;;;;;;4.50;3.10;;;;;;;18.95;77.68;99303.03;109949;1286;22099;-61
2023/11/05 06:48:20;;;;;;;4.50;2.60;;;;;;;19.04;77.30;99304.44;109942;1279;22026;-65
2023/11/05 06:50:46;;;;;;;6.80;2.40;;;;;;;19.10;77.63;99307.40;109952;1286;21896;-66
2023/11/05 06:53:12;;;;;;;4.00;2.60;;;;;;;19.18;77.52;99312.61;109938;1275;22331;-61
2023/11/05 06:55:38;;;;;;;3.80;2.50;;;;;;;19.28;77.08;99313.69;109927;1286;21914;-61
2023/11/05 06:58:04;;;;;;;3.90;2.10;;;;;;;19.37;77.14;99312.41;109938;1286;21997;-62
2023/11/05 07:00:30;;;;;;;4.90;2.40;;;;;;;19.47;77.79;99312.84;109942;1286;22007;-67
2023/11/05 07:02:56;;;;;;;3.80;2.40;;;;;;;19.57;77.28;99312.20;109942;1287;21949;-67
2023/11/05 07:05:21;;;;;;;4.00;2.60;;;;;;;19.64;76.68;99315.98;109939;1286;21921;-66
2023/11/05 07:07:47;;;;;;;4.30;2.30;;;;;;;19.72;76.61;99322.77;110043;1283;21809;-63
2023/11/05 07:10:13;;;;;;;3.70;2.40;;;;;;;19.81;76.35;99330.35;109987;1279;21912;-66
2023/11/05 07:12:41;;;;;;;3.80;2.30;;;;;;;19.90;76.39;99334.55;109928;1275;21933;-67
2023/11/05 07:15:09;;;;;;;4.30;2.60;;;;;;;20.00;75.91;99338.00;109964;1278;21935;-61
2023/11/05 07:17:35;;;;;;;3.50;2.30;;;;;;;20.04;74.89;99348.37;109950;1279;21907;-66
2023/11/05 07:20:01;;;;;;;4.00;2.70;;;;;;;20.08;74.71;99343.72;109926;1286;21903;-61
2023/11/05 07:22:26;;;;;;;4.70;2.20;;;;;;;20.15;74.69;99339.65;109963;1286;21993;-63
2023/11/05 07:24:52;;;;;;;4.20;2.40;;;;;;;20.22;73.75;99343.26;109949;1273;21951;-61
2023/11/05 07:27:18;;;;;;;6.40;2.40;;;;;;;20.28;73.61;99344.63;109962;1287;21937;-62
2023/11/05 07:29:46;;;;;;;4.20;2.60;;;;;;;20.37;73.35;99347.08;109940;1273;21859;-66
2023/11/05 07:32:12;;;;;;;3.40;2.30;;;;;;;20.43;72.83;99349.67;109960;1286;21941;-66
2023/11/05 07:34:37;;;;;;;4.80;2.90;;;;;;;20.51;72.95;99348.59;109946;1286;21930;-62
2023/11/05 07:37:03;;;;;;;3.70;2.50;;;;;;;20.58;72.25;99343.45;109945;1287;21934;-66
2023/11/05 07:39:29;;;;;;;3.80;2.70;;;;;;;20.63;71.27;99336.84;109209;1286;1002512;-61
2023/11/05 07:41:54;;;;;;;5.70;2.50;;;;;;;20.69;71.14;99336.80;109937;1287;21945;-66
2023/11/05 07:44:20;;;;;;;3.70;2.00;;;;;;;20.76;71.19;99333.98;109967;1279;21938;-66
2023/11/05 07:46:49;;;;;;;3.30;2.00;;;;;;;20.85;70.60;99330.89;109933;1277;21932;-61
2023/11/05 07:49:15;;;;;;;4.10;2.40;;;;;;;20.97;71.01;99329.34;109954;1279;22176;-66
2023/11/05 07:51:40;;;;;;;3.30;2.10;;;;;;;21.10;71.19;99322.35;109949;1273;21943;-65
2023/11/05 07:54:07;;;;;;;5.60;2.70;;;;;;;21.21;70.91;99318.82;109961;1283;21941;-67
2023/11/05 07:56:33;;;;;;;4.70;2.00;;;;;;;21.33;70.40;99318.00;109956;1279;21872;-67
2023/11/05 07:58:58;;;;;;;4.10;2.40;;;;;;;21.42;69.72;99323.36;109940;1283;21957;-67
2023/11/05 08:01:24;;;;;;;3.60;2.70;;;;;;;21.48;69.27;99321.16;109947;1283;21847;-66
2023/11/05 08:03:50;;;;;;;4.10;2.30;;;;;;;21.54;68.91;99319.98;109951;1287;22007;-67
2023/11/05 08:06:15;;;;;;;3.70;2.30;;;;;;;21.62;68.46;99319.11;109930;1279;21880;-67
2023/11/05 08:08:41;;;;;;;3.60;2.50;;;;;;;21.67;67.06;99320.14;109942;1286;22001;-66
2023/11/05 08:11:07;;;;;;;3.50;2.20;;;;;;;21.70;66.41;99322.23;109950;1287;21993;-62
2023/11/05 08:13:32;;;;;;;3.90;2.40;;;;;;;21.76;66.99;99323.17;109944;1287;21952;-67
2023/11/05 08:15:59;;;;;;;4.10;2.40;;;;;;;21.83;66.58;99324.10;109962;1283;22028;-60
2023/11/05 08:18:27;;;;;;;4.40;2.30;;;;;;;21.88;64.90;99324.30;109965;1286;21938;-61
2023/11/05 08:20:53;;;;;;;2.80;2.00;;;;;;;21.90;65.20;99320.55;109938;1275;21930;-61
2023/11/05 08:23:19;;;;;;;5.30;2.30;;;;;;;21.93;65.37;99324.37;109943;1283;21932;-64
2023/11/05 08:25:44;;;;;;;4.00;2.50;;;;;;;21.97;64.20;99328.21;109936;1286;22004;-61
2023/11/05 08:28:10;;;;;;;4.30;2.70;;;;;;;21.99;63.53;99323.23;109963;1285;22001;-66
2023/11/05 08:30:36;;;;;;;3.80;2.40;;;;;;;22.07;64.01;99323.89;109943;1287;21947;-67
2023/11/05 08:33:01;;;;;;;3.90;2.40;;;;;;;22.12;62.93;99324.51;109957;1279;21905;-61
2023/11/05 08:35:27;;;;;;;5.20;2.20;;;;;;;22.18;61.40;99322.19;109932;1278;22051;-61
2023/11/05 08:37:54;;;;;;;4.60;2.40;;;;;;;22.21;61.66;99319.56;109962;1276;21900;-67
2023/11/05 08:40:20;;;;;;;3.70;2.20;;;;;;;22.28;61.89;99317.44;109950;1286;21926;-61
2023/11/05 08:42:47;;;;;;;5.90;2.50;;;;;;;22.38;62.02;99313.81;109944;1278;21982;-62
2023/11/05 08:45:16;;;;;;;3.70;2.30;;;;;;;22.54;62.91;99315.63;109950;1286;21925;-62
2023/11/05 08:47:41;;;;;;;4.20;2.50;;;;;;;22.68;62.31;99319.17;109945;1286;21957;-67
2023/11/05 08:50:07;;;;;;;2.80;1.90;;;;;;;22.82;61.61;99318.91;109958;1283;21957;-66
2023/11/05 08:52:34;;;;;;;2.90;2.00;;;;;;;22.97;61.20;99317.20;109942;1286;21966;-67
2023/11/05 08:55:01;;;;;;;3.20;2.00;;;;;;;23.14;61.82;99311.50;109950;1279;21919;-61
2023/11/05 08:57:28;;;;;;;2.60;1.70;;;;;;;23.30;60.78;99313.90;109960;1280;21950;-67
2023/11/05 08:59:53;;;;;;;4.40;2.30;;;;;;;23.36;59.31;99315.17;109951;1279;21917;-66
2023/11/05 09:02:19;;;;;;;2.70;2.10;;;;;;;23.44;59.31;99318.42;109959;1286;21919;-61
2023/11/05 09:04:45;;;;;;;3.50;2.10;;;;;;;23.49;57.42;99312.88;109944;1282;21919;-61
2023/11/05 09:07:11;;;;;;;3.60;1.90;;;;;;;23.58;57.83;99314.58;109945;1286;22468;-68
2023/11/05 09:09:37;;;;;;;3.40;2.10;;;;;;;23.68;57.46;99312.13;109945;1287;21958;-67
2023/11/05 09:12:07;;;;;;;4.20;2.50;;;;;;;23.76;57.06;99305.20;109953;1275;22018;-60
2023/11/05 09:14:33;;;;;;;3.90;2.70;;;;;;;23.77;55.85;99302.77;109951;1286;21936;-60
2023/11/05 09:16:58;;;;;;;5.20;2.70;;;;;;;23.85;57.80;99298.84;109962;1287;22419;-60
2023/11/05 09:19:24;;;;;;;4.00;3.00;;;;;;;23.93;57.75;99285.86;109933;1286;21939;-67
2023/11/05 09:21:49;;;;;;;4.70;3.30;;;;;;;23.98;57.51;99271.49;109967;1276;21947;-60
2023/11/05 09:24:15;;;;;;;5.60;3.10;;;;;;;24.06;57.82;99264.39;109933;1286;22010;-60
2023/11/05 09:26:41;;;;;;;4.90;3.00;;;;;;;24.08;55.31;99253.23;109959;1286;21911;-62
2023/11/05 09:29:06;;;;;;;5.80;3.30;;;;;;;24.11;55.44;99251.95;109953;1286;21939;-64
2023/11/05 09:31:32;;;;;;;4.60;2.80;;;;;;;24.14;54.86;99252.20;109959;1286;21917;-68
2023/11/05 09:33:58;;;;;;;6.80;5.40;;;;;;;24.15;55.11;99244.94;109947;1286;22006;-67
2023/11/05 09:36:24;;;;;;;5.40;3.30;;;;;;;24.14;54.64;99245.76;109953;1280;21961;-67
2023/11/05 09:38:49;;;;;;;5.00;3.10;;;;;;;24.09;54.78;99248.13;109959;1273;21981;-68
2023/11/05 09:41:17;;;;;;;5.30;3.10;;;;;;;24.04;54.14;99245.02;109938;1286;21861;-68
2023/11/05 09:43:48;;;;;;;4.50;3.10;;;;;;;24.02;54.31;99248.02;109935;1286;21965;-68
2023/11/05 09:46:14;;;;;;;6.40;3.40;;;;;;;24.00;53.98;99249.98;109142;1286;1002153;-67
2023/11/05 09:48:41;;;;;;;3.50;2.60;;;;;;;23.98;53.71;99249.11;109965;1276;21947;-60
2023/11/05 09:51:09;;;;;;;4.00;3.00;;;;;;;23.93;53.01;99246.42;109934;1286;22002;-61
2023/11/05 09:53:35;;;;;;;4.30;2.60;;;;;;;23.92;53.78;99244.55;109945;1276;21925;-60
2023/11/05 09:56:00;;;;;;;4.40;2.80;;;;;;;23.96;53.66;99244.10;109872;1278;22018;-61
2023/11/05 09:58:26;;;;;;;7.30;3.20;;;;;;;24.00;53.93;99239.45;109834;1286;21968;-60
2023/11/05 10:00:52;;;;;;;4.50;2.60;;;;;;;24.07;53.93;99239.41;109935;1279;21952;-63
2023/11/05 10:03:17;;;;;;;3.10;2.20;;;;;;;24.10;52.97;99239.10;109946;1287;21952;-68
2023/11/05 10:05:43;;;;;;;5.00;2.00;;;;;;;24.09;52.03;99244.05;109932;1286;22228;-68
2023/11/05 10:08:10;;;;;;;3.20;2.00;;;;;;;24.09;51.33;99239.95;109934;1286;21918;-65
2023/11/05 10:10:38;;;;;;;3.30;2.20;;;;;;;24.08;51.91;99236.83;109940;1286;21969;-69
2023/11/05 10:13:07;;;;;;;3.00;2.10;;;;;;;24.01;50.81;99232.58;109952;1286;21992;-61
2023/11/05 10:15:33;;;;;;;3.70;1.70;;;;;;;23.92;49.56;99228.95;109964;1287;22355;-70
2023/11/05 10:17:59;;;;;;;4.00;1.60;;;;;;;23.84;49.76;99238.11;109943;1287;21862;-70
2023/11/05 10:20:25;;;;;;;2.00;1.30;;;;;;;23.76;50.45;99237.34;109967;1287;21940;-63
2023/11/05 10:23:04;;;;;;;3.40;2.30;;;;;;;23.73;49.82;99233.62;109955;1286;22000;-63
2023/11/05 10:25:30;;;;;;;3.70;1.60;;;;;;;23.66;48.53;99231.02;109966;1287;21944;-62
2023/11/05 10:27:57;;;;;;;3.10;1.90;;;;;;;23.58;48.69;99233.48;109953;1286;22022;-70
2023/11/05 10:30:22;;;;;;;2.80;1.60;;;;;;;23.51;48.93;99232.98;109939;1286;21942;-63
2023/11/05 10:32:49;;;;;;;2.40;1.90;;;;;;;23.44;49.15;99232.99;109954;1287;22013;-64
2023/11/05 10:35:18;;;;;;;3.00;2.00;;;;;;;23.43;50.25;99226.34;109968;1286;21958;-62
2023/11/05 10:37:53;;;;;;;3.30;2.30;;;;;;;23.43;50.48;99220.09;109946;1286;22317;-62
2023/11/05 10:40:19;;;;;;;5.00;2.50;;;;;;;23.43;49.82;99221.81;109948;1287;21864;-61
2023/11/05 10:42:46;;;;;;;3.40;2.30;;;;;;;23.40;49.52;99215.19;109943;1283;21942;-62
2023/11/05 10:45:12;;;;;;;3.90;2.70;;;;;;;23.30;49.70;99212.36;109960;1287;21970;-69
2023/11/05 10:47:38;;;;;;;5.60;2.70;;;;;;;23.22;49.86;99208.56;109945;1287;21947;-69
2023/11/05 10:50:09;;;;;;;3.60;2.70;;;;;;;23.19;49.59;99208.29;109942;1273;21865;-62
2023/11/05 10:52:35;;;;;;;4.60;2.70;;;;;;;23.18;50.60;99205.66;109856;1287;21885;-62
2023/11/05 10:55:08;;;;;;;4.70;3.00;;;;;;;23.16;50.97;99203.14;109959;1278;21873;-61
2023/11/05 10:57:47;;;;;;;4.50;3.70;;;;;;;23.14;51.35;99201.52;109962;1279;21938;-63
2023/11/05 11:00:16;;;;;;;5.50;3.10;;;;;;;23.12;51.47;99198.64;109958;1287;22371;-61
2023/11/05 11:02:44;;;;;;;3.70;2.90;;;;;;;23.14;51.72;99197.72;109934;1279;21943;-62
2023/11/05 11:05:14;;;;;;;4.20;2.90;;;;;;;23.21;51.33;99193.40;109974;1286;21929;-70
2023/11/05 11:07:39;;;;;;;3.40;2.60;;;;;;;23.20;49.82;99196.55;109937;1285;21960;-70
2023/11/05 11:10:09;;;;;;;4.90;2.50;;;;;;;23.16;49.44;99189.17;109949;1287;21915;-70
2023/11/05 11:12:36;;;;;;;4.20;2.80;;;;;;;23.14;50.18;99185.94;109203;1286;1002095;-62
2023/11/05 11:15:09;;;;;;;3.30;2.30;;;;;;;23.15;50.63;99186.73;109945;1273;21925;-62
2023/11/05 11:17:38;;;;;;;2.40;1.90;;;;;;;23.18;50.68;99182.18;109951;1287;21947;-70
2023/11/05 11:20:11;;;;;;;4.80;2.50;;;;;;;23.16;49.54;99183.08;109940;1279;22028;-70